Time;durP1;ratioP1;P1;durP2;ratioP2;P2;SDS_P1;SDS_P2;PMS_P1;PMS_P2;Temp;Humidity;BMP_temperature;BMP_pressure;BME280_temperature;BME280_humidity;BME280_pressure;Samples;Min_cycle;Max_cycle;Signal;HPM_P1;HPM_P2
2021/07/09 00:01:20;;;;;;;6.32;2.17;;;;;;;15.50;92.02;96504.81;5010832;28;20520;-71
2021/07/09 00:03:47;;;;;;;4.30;1.70;;;;;;;15.53;92.13;96498.66;5011454;28;20130;-71
2021/07/09 00:06:13;;;;;;;4.00;1.80;;;;;;;15.55;91.67;96495.56;5008956;28;20053;-71
2021/07/09 00:08:40;;;;;;;5.90;1.60;;;;;;;15.55;91.31;96495.56;5010871;28;20053;-70
2021/07/09 00:11:06;;;;;;;2.30;1.40;;;;;;;15.59;91.43;96490.97;5013331;28;20042;-71
2021/07/09 00:13:33;;;;;;;3.42;1.50;;;;;;;15.60;91.27;96487.88;5014795;28;20496;-71
2021/07/09 00:16:00;;;;;;;4.97;1.70;;;;;;;15.65;91.14;96479.44;5014570;28;20046;-71
2021/07/09 00:18:27;;;;;;;2.90;1.65;;;;;;;15.68;90.12;96483.44;5014651;28;20038;-71
2021/07/09 00:20:54;;;;;;;4.47;1.70;;;;;;;15.69;89.88;96478.75;5014960;28;20413;-70
2021/07/09 00:23:21;;;;;;;5.75;1.58;;;;;;;15.67;90.04;96475.56;5014297;28;20049;-71
2021/07/09 00:25:48;;;;;;;3.53;1.42;;;;;;;15.65;89.86;96475.91;5014536;28;20062;-71
2021/07/09 00:28:14;;;;;;;2.83;1.17;;;;;;;15.57;89.75;96471.31;5014247;28;20050;-71
2021/07/09 00:30:41;;;;;;;2.45;1.33;;;;;;;15.62;89.84;96473.84;5014538;28;20493;-71
2021/07/09 00:33:07;;;;;;;4.10;1.52;;;;;;;15.64;89.79;96463.31;5014097;28;20042;-71
2021/07/09 00:35:35;;;;;;;4.18;1.90;;;;;;;15.63;89.85;96465.28;5014026;28;20042;-71
2021/07/09 00:38:02;;;;;;;3.60;1.30;;;;;;;15.63;89.94;96461.72;5013918;28;20054;-71
2021/07/09 00:40:28;;;;;;;5.45;1.88;;;;;;;15.66;90.00;96452.81;5014598;28;20046;-71
2021/07/09 00:42:55;;;;;;;3.53;1.50;;;;;;;15.65;89.77;96445.69;5014329;28;20517;-71
2021/07/09 00:45:21;;;;;;;4.65;1.63;;;;;;;15.68;89.36;96445.00;5013977;28;20565;-70
2021/07/09 00:47:50;;;;;;;3.33;1.25;;;;;;;15.71;88.72;96438.81;5014322;28;20057;-70
2021/07/09 00:50:18;;;;;;;2.13;1.48;;;;;;;15.71;88.85;96436.06;5013826;28;20065;-71
2021/07/09 00:52:46;;;;;;;4.75;1.75;;;;;;;15.69;88.90;96435.63;5014258;28;20042;-70
2021/07/09 00:55:15;;;;;;;3.75;1.67;;;;;;;15.70;88.32;96426.25;5013760;28;20049;-70
2021/07/09 00:57:45;;;;;;;3.72;1.42;;;;;;;15.64;87.50;96409.22;5013937;28;20045;-71
2021/07/09 01:00:14;;;;;;;3.25;1.40;;;;;;;15.61;87.53;96415.41;5013495;28;20042;-71
2021/07/09 01:02:41;;;;;;;3.05;1.55;;;;;;;15.59;87.54;96408.63;5014275;28;20050;-71
2021/07/09 01:05:10;;;;;;;2.78;1.38;;;;;;;15.53;87.73;96415.53;5013607;28;20656;-72
2021/07/09 01:07:37;;;;;;;4.72;1.73;;;;;;;15.52;88.30;96408.44;5013367;28;20044;-72
2021/07/09 01:10:09;;;;;;;6.40;2.00;;;;;;;15.51;88.16;96402.16;5013439;28;20050;-71
2021/07/09 01:12:36;;;;;;;2.55;1.52;;;;;;;15.54;88.42;96400.66;5013743;28;20042;-71
2021/07/09 01:15:04;;;;;;;5.40;1.70;;;;;;;15.52;87.89;96411.19;5013385;28;20050;-71
2021/07/09 01:17:31;;;;;;;3.88;1.50;;;;;;;15.51;87.62;96398.63;5013667;28;20061;-71
2021/07/09 01:19:57;;;;;;;4.32;1.70;;;;;;;15.49;87.81;96392.66;5013813;28;20050;-73
2021/07/09 01:22:25;;;;;;;3.33;1.85;;;;;;;15.50;88.04;96399.75;5013048;28;20053;-71
2021/07/09 01:24:53;;;;;;;8.57;2.25;;;;;;;15.49;88.10;96392.66;5013573;28;20053;-71
2021/07/09 01:27:20;;;;;;;4.13;1.73;;;;;;;15.49;88.56;96392.66;5013006;28;20041;-71
2021/07/09 01:29:47;;;;;;;6.82;2.45;;;;;;;15.45;88.58;96389.00;5013329;28;20500;-71
2021/07/09 01:32:14;;;;;;;4.57;1.83;;;;;;;15.46;88.71;96398.88;5013291;28;20046;-70
2021/07/09 01:34:40;;;;;;;3.45;1.50;;;;;;;15.47;88.21;96392.22;5013849;28;20046;-71
2021/07/09 01:37:11;;;;;;;3.47;1.77;;;;;;;15.49;88.28;96392.66;5012439;28;20050;-71
2021/07/09 01:39:38;;;;;;;4.18;1.70;;;;;;;15.53;88.25;96388.88;5013406;28;20062;-71
2021/07/09 01:42:06;;;;;;;3.67;1.50;;;;;;;15.57;88.08;96391.72;5012792;28;20524;-71
2021/07/09 01:44:34;;;;;;;3.33;1.50;;;;;;;15.52;87.58;96391.97;5013376;28;20057;-70
2021/07/09 01:47:01;;;;;;;3.80;1.33;;;;;;;15.54;88.03;96395.16;5013175;28;20413;-70
2021/07/09 01:49:27;;;;;;;6.53;2.05;;;;;;;15.54;87.73;96389.69;5012930;28;20053;-71
2021/07/09 01:51:55;;;;;;;3.17;1.85;;;;;;;15.51;87.82;96390.38;5013060;28;20050;-70
2021/07/09 01:54:21;;;;;;;6.20;1.90;;;;;;;15.49;87.33;96387.19;5012822;28;20058;-70
2021/07/09 01:56:48;;;;;;;3.03;1.60;;;;;;;15.37;87.65;96391.56;5013114;28;20489;-71
2021/07/09 01:59:16;;;;;;;5.47;1.75;;;;;;;15.25;88.27;96383.38;5012436;28;20405;-71
2021/07/09 02:01:42;;;;;;;3.92;1.85;;;;;;;15.20;88.56;96386.38;5013261;28;20057;-71
2021/07/09 02:04:09;;;;;;;5.70;1.92;;;;;;;15.15;88.75;96386.59;5012554;28;20042;-71
2021/07/09 02:06:35;;;;;;;4.28;1.83;;;;;;;15.08;89.26;96383.63;5012188;28;20046;-71
2021/07/09 02:09:02;;;;;;;5.55;1.92;;;;;;;15.04;89.52;96382.75;5012432;28;20053;-72
2021/07/09 02:11:28;;;;;;;4.38;1.80;;;;;;;15.02;89.59;96385.03;5012701;28;20072;-71
2021/07/09 02:13:54;;;;;;;3.65;1.45;;;;;;;14.97;89.53;96383.31;5012649;28;20045;-71
2021/07/09 02:16:22;;;;;;;3.92;1.42;;;;;;;14.97;89.76;96386.06;5012467;28;21469;-71
2021/07/09 02:18:50;;;;;;;3.38;1.25;;;;;;;14.93;89.70;96387.09;5012564;28;20045;-72
2021/07/09 02:21:17;;;;;;;4.90;1.80;;;;;;;14.90;90.09;96388.59;5012292;28;20118;-71
2021/07/09 02:23:44;;;;;;;6.00;1.58;;;;;;;14.88;90.11;96385.41;5012460;28;20049;-71
2021/07/09 02:26:10;;;;;;;3.45;1.77;;;;;;;14.86;90.51;96387.66;5011927;28;20049;-71
2021/07/09 02:28:37;;;;;;;3.72;1.63;;;;;;;14.84;90.20;96385.28;5012203;28;20057;-71
2021/07/09 02:31:03;;;;;;;2.90;1.40;;;;;;;14.84;90.31;96387.22;5012193;28;20046;-72
2021/07/09 02:33:31;;;;;;;4.45;1.50;;;;;;;14.81;90.29;96391.44;5011849;28;20137;-71
2021/07/09 02:35:58;;;;;;;6.68;1.83;;;;;;;14.78;90.63;96394.09;5011804;28;20505;-71
2021/07/09 02:38:24;;;;;;;4.28;1.70;;;;;;;14.78;90.59;96394.88;5011584;28;20050;-71
2021/07/09 02:40:51;;;;;;;4.55;1.63;;;;;;;14.80;90.65;96403.56;5012340;28;20049;-71
2021/07/09 02:43:17;;;;;;;6.28;1.60;;;;;;;14.79;90.43;96409.38;5011749;28;20053;-70
2021/07/09 02:45:43;;;;;;;4.00;1.55;;;;;;;14.77;90.60;96401.53;5012241;28;20053;-71
2021/07/09 02:48:10;;;;;;;3.22;1.58;;;;;;;14.80;90.57;96411.78;5011663;28;20053;-71
2021/07/09 02:50:38;;;;;;;3.65;1.80;;;;;;;14.82;90.45;96404.00;5012064;28;20050;-71
2021/07/09 02:53:04;;;;;;;2.80;1.38;;;;;;;14.78;90.35;96414.06;5011598;28;20050;-71
2021/07/09 02:55:31;;;;;;;3.40;1.40;;;;;;;14.76;90.32;96408.13;5011981;28;20048;-71
2021/07/09 02:57:57;;;;;;;5.95;1.77;;;;;;;14.74;90.17;96418.63;5011852;28;20050;-71
2021/07/09 03:00:24;;;;;;;5.80;2.45;;;;;;;14.72;90.32;96404.50;5011521;28;20050;-71
2021/07/09 03:02:50;;;;;;;3.65;1.38;;;;;;;14.73;90.87;96406.09;5011823;28;20045;-71
2021/07/09 03:05:17;;;;;;;4.28;1.52;;;;;;;14.74;90.20;96417.84;5010966;28;20042;-71
2021/07/09 03:07:45;;;;;;;4.90;1.17;;;;;;;14.75;90.17;96414.75;5011486;28;20072;-71
2021/07/09 03:10:12;;;;;;;5.22;1.42;;;;;;;14.71;89.93;96415.78;5011500;28;20065;-71
2021/07/09 03:12:40;;;;;;;2.80;1.02;;;;;;;14.70;90.02;96416.94;5011646;28;20041;-71
2021/07/09 03:15:09;;;;;;;5.93;1.30;;;;;;;14.68;89.84;96425.50;5011346;28;20054;-72
2021/07/09 03:17:36;;;;;;;2.35;0.95;;;;;;;14.67;89.93;96434.88;5011527;28;20053;-71
2021/07/09 03:20:04;;;;;;;5.43;0.90;;;;;;;14.63;89.54;96425.72;5011068;28;20512;-72
2021/07/09 03:22:31;;;;;;;4.88;1.05;;;;;;;14.66;89.77;96422.28;5011702;28;20523;-71
2021/07/09 03:24:58;;;;;;;3.30;1.00;;;;;;;14.71;89.23;96418.53;5011575;28;20046;-71
2021/07/09 03:27:25;;;;;;;2.75;1.10;;;;;;;14.73;89.38;96417.03;5011148;28;20046;-71
2021/07/09 03:29:51;;;;;;;2.83;1.20;;;;;;;14.78;89.58;96416.03;5011593;28;20049;-71
2021/07/09 03:32:18;;;;;;;3.17;1.05;;;;;;;14.81;88.74;96416.13;5011242;28;20069;-71
2021/07/09 03:34:44;;;;;;;2.88;0.95;;;;;;;14.75;87.88;96417.50;5011698;28;20049;-71
2021/07/09 03:37:11;;;;;;;3.25;1.02;;;;;;;14.68;87.39;96420.03;5010625;28;20053;-70
2021/07/09 03:39:37;;;;;;;3.22;0.80;;;;;;;14.63;87.45;96422.97;5011357;28;20049;-71
2021/07/09 03:42:05;;;;;;;5.82;1.05;;;;;;;14.62;87.57;96418.66;5010972;28;20054;-71
2021/07/09 03:44:32;;;;;;;1.88;0.50;;;;;;;14.61;87.78;96417.03;5011531;28;20046;-71
2021/07/09 03:46:58;;;;;;;3.97;1.80;;;;;;;14.58;87.87;96425.94;5015278;28;20054;-71
2021/07/09 03:49:25;;;;;;;3.72;0.95;;;;;;;14.53;87.46;96423.44;5015053;28;20393;-71
2021/07/09 03:51:51;;;;;;;1.13;0.43;;;;;;;14.54;87.51;96431.31;5015397;28;20049;-71
2021/07/09 03:54:18;;;;;;;1.65;0.50;;;;;;;14.58;87.54;96421.28;5014690;28;20062;-71
2021/07/09 03:56:44;;;;;;;2.70;0.82;;;;;;;14.57;86.70;96422.41;5015154;28;20041;-71
2021/07/09 03:59:12;;;;;;;3.90;1.20;;;;;;;14.53;86.29;96423.44;5014729;28;20412;-71
2021/07/09 04:01:38;;;;;;;3.67;0.80;;;;;;;14.50;87.21;96424.09;5015449;28;20048;-71
2021/07/09 04:04:05;;;;;;;2.70;0.93;;;;;;;14.49;87.29;96423.31;5014785;28;20046;-71
2021/07/09 04:06:32;;;;;;;3.75;1.02;;;;;;;14.51;87.66;96425.69;5014616;28;20054;-71
2021/07/09 04:08:58;;;;;;;5.30;0.93;;;;;;;14.51;87.33;96425.69;5015025;28;20050;-71
2021/07/09 04:11:25;;;;;;;2.45;0.73;;;;;;;14.52;87.67;96428.13;5014459;28;20049;-71
2021/07/09 04:13:51;;;;;;;2.95;0.75;;;;;;;14.53;87.01;96426.97;5014893;28;20053;-71
2021/07/09 04:16:19;;;;;;;3.83;0.90;;;;;;;14.48;87.05;96432.69;5014519;28;20042;-71
2021/07/09 04:18:45;;;;;;;3.28;0.90;;;;;;;14.46;87.59;96428.63;5014839;28;20048;-71
2021/07/09 04:21:12;;;;;;;2.45;0.82;;;;;;;14.46;87.76;96439.59;5014363;28;20046;-71
2021/07/09 04:23:39;;;;;;;2.95;0.75;;;;;;;14.43;86.83;96437.53;5014628;28;20045;-71
2021/07/09 04:26:06;;;;;;;6.30;1.38;;;;;;;14.44;87.78;96433.66;5014076;28;20532;-71
2021/07/09 04:28:32;;;;;;;3.55;0.80;;;;;;;14.45;87.74;96433.31;5014823;28;20052;-71
2021/07/09 04:30:59;;;;;;;2.92;0.82;;;;;;;14.44;87.89;96434.47;5014564;28;20497;-71
2021/07/09 04:33:27;;;;;;;3.22;0.80;;;;;;;14.39;88.12;96439.38;5014440;28;20045;-71
2021/07/09 04:35:53;;;;;;;4.55;1.17;;;;;;;14.42;87.79;96444.97;5013965;28;20519;-71
2021/07/09 04:38:20;;;;;;;2.33;0.80;;;;;;;14.39;87.35;96444.84;5013223;28;20062;-71
2021/07/09 04:40:47;;;;;;;4.75;1.20;;;;;;;14.42;88.50;96441.44;5013079;28;20045;-71
2021/07/09 04:43:13;;;;;;;5.63;1.55;;;;;;;14.42;87.86;96444.19;5012931;28;20050;-71
2021/07/09 04:45:40;;;;;;;2.90;1.05;;;;;;;14.47;88.23;96446.69;5013343;28;20052;-71
2021/07/09 04:48:08;;;;;;;5.82;1.10;;;;;;;14.50;88.47;96437.81;5012607;28;20050;-71
2021/07/09 04:50:35;;;;;;;3.20;1.08;;;;;;;14.56;88.63;96445.47;5013060;28;20042;-71
2021/07/09 04:53:02;;;;;;;4.93;1.40;;;;;;;14.60;88.22;96449.13;5012605;28;20505;-72
2021/07/09 04:55:29;;;;;;;6.20;1.30;;;;;;;14.67;88.44;96445.00;5012543;28;20048;-72
2021/07/09 04:57:56;;;;;;;3.60;1.27;;;;;;;14.70;88.00;96442.38;5012973;28;20046;-72
2021/07/09 05:00:23;;;;;;;3.67;1.20;;;;;;;14.69;87.42;96449.03;5012458;28;20046;-72
2021/07/09 05:02:49;;;;;;;3.70;1.40;;;;;;;14.66;87.47;96444.22;5012938;28;20049;-72
2021/07/09 05:05:16;;;;;;;4.07;1.33;;;;;;;14.69;87.82;96454.50;5012477;28;20049;-72
2021/07/09 05:07:44;;;;;;;3.95;1.10;;;;;;;14.70;87.03;96447.88;5012433;28;20041;-72
2021/07/09 05:10:11;;;;;;;2.08;1.00;;;;;;;14.68;87.26;96441.94;5012253;28;20061;-72
2021/07/09 05:12:38;;;;;;;3.40;1.23;;;;;;;14.68;87.03;96444.69;5012441;28;20046;-71
2021/07/09 05:15:05;;;;;;;7.63;2.55;;;;;;;14.68;86.96;96452.09;5011059;28;20068;-72
2021/07/09 05:17:32;;;;;;;3.92;1.20;;;;;;;14.70;87.17;96449.81;5012579;28;20050;-72
2021/07/09 05:19:58;;;;;;;3.40;1.13;;;;;;;14.71;86.25;96446.72;5012631;28;20052;-71
2021/07/09 05:22:25;;;;;;;3.72;1.23;;;;;;;14.74;87.20;96451.53;5012107;28;20055;-72
2021/07/09 05:24:54;;;;;;;4.85;1.23;;;;;;;14.75;86.01;96457.81;5012395;28;20528;-73
2021/07/09 05:27:21;;;;;;;6.20;1.70;;;;;;;14.81;86.85;96457.22;5011980;28;22180;-71
2021/07/09 05:29:48;;;;;;;5.95;1.65;;;;;;;14.86;86.62;96456.22;5012337;28;20041;-72
2021/07/09 05:32:15;;;;;;;4.22;1.27;;;;;;;14.90;86.04;96457.13;5012183;28;20050;-72
2021/07/09 05:34:42;;;;;;;3.75;1.30;;;;;;;14.91;85.12;96449.69;5012351;28;20584;-71
2021/07/09 05:37:08;;;;;;;3.60;1.20;;;;;;;14.91;84.66;96460.66;5011406;28;20057;-71
2021/07/09 05:39:35;;;;;;;10.35;2.97;;;;;;;14.94;85.68;96465.47;4975260;28;1087653;-72
2021/07/09 05:42:04;;;;;;;3.30;1.30;;;;;;;15.01;85.78;96466.50;5012636;28;20054;-71
2021/07/09 05:44:30;;;;;;;4.18;1.40;;;;;;;15.02;84.57;96467.28;5013300;28;20069;-71
2021/07/09 05:46:57;;;;;;;8.25;1.63;;;;;;;15.03;84.77;96468.88;5013042;28;20053;-72
2021/07/09 05:49:23;;;;;;;6.55;1.48;;;;;;;15.06;85.33;96468.19;5012808;28;20049;-72
2021/07/09 05:51:50;;;;;;;4.80;1.60;;;;;;;15.06;84.60;96479.19;5013071;28;20053;-71
2021/07/09 05:54:17;;;;;;;4.72;1.30;;;;;;;15.07;84.63;96461.56;5012892;28;20073;-72
2021/07/09 05:56:43;;;;;;;4.88;1.50;;;;;;;15.06;85.60;96471.75;5013048;28;20042;-71
2021/07/09 05:59:11;;;;;;;5.25;1.27;;;;;;;15.10;84.48;96474.59;5012359;28;20052;-71
2021/07/09 06:01:38;;;;;;;4.50;1.45;;;;;;;15.06;84.79;96479.19;5012999;28;20038;-71
2021/07/09 06:04:04;;;;;;;6.50;1.40;;;;;;;15.05;84.55;96483.06;5012479;28;20489;-72
2021/07/09 06:06:31;;;;;;;3.67;1.58;;;;;;;15.07;84.56;96494.47;5012374;28;20046;-72
2021/07/09 06:08:57;;;;;;;4.55;1.33;;;;;;;15.09;84.41;96497.69;5012057;28;20049;-72
2021/07/09 06:11:25;;;;;;;9.05;1.58;;;;;;;15.09;84.72;96494.94;5012360;28;20071;-71
2021/07/09 06:13:52;;;;;;;3.67;1.20;;;;;;;15.12;84.42;96499.75;5012697;28;20046;-71
2021/07/09 06:16:20;;;;;;;4.57;1.40;;;;;;;15.07;84.00;96506.25;5012345;28;20045;-72
2021/07/09 06:18:47;;;;;;;6.82;1.65;;;;;;;15.19;84.47;96521.09;5012833;28;20049;-72
2021/07/09 06:21:13;;;;;;;7.53;1.33;;;;;;;15.18;83.37;96520.31;5012162;28;20046;-72
2021/07/09 06:23:41;;;;;;;3.20;1.35;;;;;;;15.24;83.33;96518.91;5012244;28;20050;-71
2021/07/09 06:26:07;;;;;;;5.30;1.67;;;;;;;15.25;82.78;96515.06;5012164;28;20046;-72
2021/07/09 06:28:34;;;;;;;2.83;1.30;;;;;;;15.24;82.70;96518.91;5012362;28;20054;-71
2021/07/09 06:31:00;;;;;;;4.63;1.33;;;;;;;15.27;82.75;96526.47;5012458;28;20053;-71
2021/07/09 06:33:28;;;;;;;6.13;1.48;;;;;;;15.28;82.44;96533.56;5012031;28;20060;-72
2021/07/09 06:35:55;;;;;;;5.88;1.42;;;;;;;15.24;81.88;96543.59;5011767;28;20556;-71
2021/07/09 06:38:22;;;;;;;5.10;1.40;;;;;;;15.24;82.76;96545.56;5011518;28;20056;-72
2021/07/09 06:40:48;;;;;;;4.78;1.50;;;;;;;15.21;82.30;96549.00;5012205;28;20053;-72
2021/07/09 06:43:15;;;;;;;5.07;1.38;;;;;;;15.21;81.56;96558.03;5011948;28;20053;-72
2021/07/09 06:45:42;;;;;;;3.72;1.40;;;;;;;15.19;82.19;96551.28;5012337;28;20045;-71
2021/07/09 06:48:09;;;;;;;2.85;1.30;;;;;;;15.20;82.44;96559.19;5011815;28;20049;-71
2021/07/09 06:50:38;;;;;;;3.47;1.33;;;;;;;15.22;82.01;96565.13;5012091;28;20049;-72
2021/07/09 06:53:05;;;;;;;4.78;1.70;;;;;;;15.23;82.23;96566.72;5011505;28;20502;-72
2021/07/09 06:55:31;;;;;;;2.70;1.00;;;;;;;15.24;81.98;96562.81;5012118;28;20053;-71
2021/07/09 06:57:58;;;;;;;6.05;1.42;;;;;;;15.25;81.99;96564.44;5011857;28;20042;-71
2021/07/09 07:00:25;;;;;;;3.30;1.30;;;;;;;15.27;81.66;96567.63;5011480;28;20046;-71
2021/07/09 07:02:51;;;;;;;5.30;1.40;;;;;;;15.26;81.39;96570.72;5011906;28;20140;-71
2021/07/09 07:05:18;;;;;;;2.53;1.25;;;;;;;15.29;82.07;96570.81;5010902;28;20045;-76
2021/07/09 07:07:46;;;;;;;4.90;1.30;;;;;;;15.32;81.65;96569.34;5011226;28;20038;-75
2021/07/09 07:10:14;;;;;;;4.90;1.73;;;;;;;15.32;81.39;96574.84;5009325;28;20054;-78
2021/07/09 07:12:42;;;;;;;3.55;1.30;;;;;;;15.32;81.41;96572.88;5011585;28;20046;-77
2021/07/09 07:15:10;;;;;;;5.45;1.83;;;;;;;15.29;82.31;96579.03;5010829;28;20405;-75
2021/07/09 07:17:37;;;;;;;8.25;2.35;;;;;;;15.28;83.12;96569.22;5010858;28;20049;-76
2021/07/09 07:20:05;;;;;;;5.07;1.63;;;;;;;15.21;82.52;96573.69;5010650;28;20575;-75
2021/07/09 07:22:31;;;;;;;4.40;1.55;;;;;;;15.19;83.56;96582.28;5011218;28;20042;-75
2021/07/09 07:24:59;;;;;;;4.28;1.60;;;;;;;15.20;83.86;96567.41;5011109;28;20053;-78
2021/07/09 07:27:27;;;;;;;7.88;2.55;;;;;;;15.10;83.92;96573.34;5011356;28;20041;-76
2021/07/09 07:29:55;;;;;;;5.97;2.33;;;;;;;15.07;85.21;96576.75;5016938;28;20054;-78
2021/07/09 07:32:21;;;;;;;5.50;1.88;;;;;;;15.02;84.70;96569.53;5010679;28;20049;-77
2021/07/09 07:34:48;;;;;;;9.50;3.03;;;;;;;15.02;86.12;96574.25;5010704;28;20084;-77
2021/07/09 07:37:14;;;;;;;6.50;2.33;;;;;;;15.05;86.54;96581.78;5010264;28;20421;-76
2021/07/09 07:39:41;;;;;;;21.17;4.55;;;;;;;15.05;85.91;96573.56;5010110;28;20049;-77
2021/07/09 07:42:09;;;;;;;9.27;2.42;;;;;;;14.97;85.66;96579.94;5026291;28;20452;-74
2021/07/09 07:44:36;;;;;;;8.30;2.17;;;;;;;14.98;86.91;96582.38;5010251;28;20065;-74
2021/07/09 07:47:03;;;;;;;7.32;2.17;;;;;;;14.90;86.86;96574.22;5010180;28;20060;-74
2021/07/09 07:49:29;;;;;;;6.97;2.00;;;;;;;14.93;87.11;96584.50;5010983;28;20404;-74
2021/07/09 07:51:56;;;;;;;7.70;2.47;;;;;;;14.94;88.02;96575.16;5010854;28;20049;-75
2021/07/09 07:54:22;;;;;;;18.10;4.70;;;;;;;14.79;88.10;96582.88;5007824;28;20063;-73
2021/07/09 07:56:49;;;;;;;5.65;2.08;;;;;;;14.78;89.17;96584.03;5010070;28;20054;-73
2021/07/09 07:59:17;;;;;;;5.10;2.17;;;;;;;14.74;89.29;96588.59;5010544;28;20409;-73
2021/07/09 08:01:43;;;;;;;6.72;2.17;;;;;;;14.71;89.21;96588.47;5011103;28;20042;-73
2021/07/09 08:04:10;;;;;;;4.20;1.83;;;;;;;14.65;89.59;96593.34;5010640;28;20049;-73
2021/07/09 08:06:36;;;;;;;8.40;2.90;;;;;;;14.65;90.64;96592.56;5010344;28;20048;-73
2021/07/09 08:09:03;;;;;;;5.22;2.17;;;;;;;14.57;90.02;96583.28;5010734;28;20065;-75
2021/07/09 08:11:30;;;;;;;7.50;2.60;;;;;;;14.61;90.64;96590.47;5010785;28;20065;-73
2021/07/09 08:13:56;;;;;;;8.18;2.92;;;;;;;14.69;91.06;96607.19;5011014;28;20046;-73
2021/07/09 08:16:24;;;;;;;7.25;2.65;;;;;;;14.68;89.93;96594.63;5010319;28;20042;-73
2021/07/09 08:18:50;;;;;;;8.07;2.90;;;;;;;14.74;90.71;96593.28;5010780;28;20049;-74
2021/07/09 08:21:17;;;;;;;5.97;2.25;;;;;;;14.75;90.28;96601.16;5010288;28;20520;-75
2021/07/09 08:23:44;;;;;;;9.38;3.42;;;;;;;14.81;90.68;96605.28;5010478;28;20069;-74
2021/07/09 08:26:10;;;;;;;5.03;2.20;;;;;;;14.87;90.58;96603.91;5010083;28;20046;-72
2021/07/09 08:28:37;;;;;;;6.60;2.63;;;;;;;14.92;90.66;96611.13;5010441;28;20050;-72
2021/07/09 08:31:03;;;;;;;9.75;2.92;;;;;;;14.94;90.14;96603.38;5010546;28;20050;-75
2021/07/09 08:33:31;;;;;;;3.92;1.73;;;;;;;14.92;89.05;96615.81;5014020;28;20054;-73
2021/07/09 08:35:58;;;;;;;9.00;3.03;;;;;;;14.97;90.16;96610.09;5013344;28;20417;-73
2021/07/09 08:38:24;;;;;;;4.70;2.35;;;;;;;15.06;90.41;96617.09;5013552;28;20042;-73
2021/07/09 08:40:51;;;;;;;6.88;2.70;;;;;;;15.19;90.10;96617.94;5013863;28;20053;-73
2021/07/09 08:43:17;;;;;;;6.18;2.78;;;;;;;15.23;88.09;96610.59;5013403;28;20057;-75
2021/07/09 08:45:45;;;;;;;3.17;2.03;;;;;;;15.23;87.52;96616.09;5013021;28;20520;-75
2021/07/09 08:48:14;;;;;;;3.97;2.22;;;;;;;15.29;87.36;96605.69;5012813;28;20057;-74
2021/07/09 08:50:42;;;;;;;3.78;2.08;;;;;;;15.27;86.93;96611.53;5013788;28;20104;-73
2021/07/09 08:53:08;;;;;;;4.85;2.60;;;;;;;15.25;86.91;96619.31;5013321;28;20053;-77
2021/07/09 08:55:35;;;;;;;3.08;1.92;;;;;;;15.29;87.23;96624.88;5013981;28;20053;-75
2021/07/09 08:58:01;;;;;;;5.03;2.28;;;;;;;15.31;85.75;96626.16;5013514;28;20058;-73
2021/07/09 09:00:42;;;;;;;4.15;2.25;;;;;;;15.40;86.05;96626.88;5013927;28;20038;-73
2021/07/09 09:03:24;;;;;;;5.72;2.83;;;;;;;15.47;85.89;96625.50;5013244;28;20050;-74
2021/07/09 09:05:53;;;;;;;5.28;2.33;;;;;;;15.46;84.70;96630.19;5012830;28;20501;-73
2021/07/09 09:08:22;;;;;;;3.75;2.10;;;;;;;15.51;85.05;96634.66;5013215;28;20046;-73
2021/07/09 09:10:50;;;;;;;3.72;2.15;;;;;;;15.53;85.02;96622.16;5013726;28;20053;-73
2021/07/09 09:13:18;;;;;;;2.70;1.58;;;;;;;15.61;85.04;96632.25;5013101;28;20042;-74
2021/07/09 09:15:57;;;;;;;3.90;2.00;;;;;;;15.69;83.66;96627.78;5012618;28;20046;-75
2021/07/09 09:18:26;;;;;;;4.55;1.98;;;;;;;15.79;84.59;96635.56;5012853;28;20038;-72
2021/07/09 09:20:59;;;;;;;3.10;1.85;;;;;;;15.94;85.32;96647.00;5013252;28;20547;-73
2021/07/09 09:23:27;;;;;;;4.97;2.15;;;;;;;15.86;82.85;96644.00;5011904;28;20038;-74
2021/07/09 09:25:54;;;;;;;4.13;2.17;;;;;;;15.90;83.21;96644.13;5012987;28;20042;-73
2021/07/09 09:28:21;;;;;;;3.70;1.90;;;;;;;15.96;83.17;96647.44;5011763;28;20049;-73
2021/07/09 09:30:53;;;;;;;5.13;2.08;;;;;;;16.10;82.09;96647.88;5012948;28;20046;-73
2021/07/09 09:33:19;;;;;;;5.32;2.42;;;;;;;16.16;81.75;96652.00;5012511;28;20042;-73
2021/07/09 09:35:48;;;;;;;5.82;1.95;;;;;;;16.24;82.14;96653.03;5012349;28;20042;-73
2021/07/09 09:38:18;;;;;;;4.50;1.73;;;;;;;16.26;81.37;96646.00;5011712;28;20405;-75
2021/07/09 09:40:47;;;;;;;4.00;1.85;;;;;;;16.24;81.40;96653.81;5012606;28;20050;-73
2021/07/09 09:43:15;;;;;;;6.15;2.20;;;;;;;16.29;83.27;96645.34;5011328;28;20046;-73
2021/07/09 09:45:42;;;;;;;4.88;1.80;;;;;;;16.34;81.61;96653.34;5012876;28;20049;-73
2021/07/09 09:48:10;;;;;;;5.50;1.92;;;;;;;16.34;80.29;96652.50;5012157;28;20056;-74
2021/07/09 09:50:48;;;;;;;7.60;2.00;;;;;;;16.26;80.68;96668.00;5011430;28;20452;-75
2021/07/09 09:53:31;;;;;;;7.18;2.70;;;;;;;16.33;81.96;96657.22;5010792;28;20046;-73
2021/07/09 09:56:05;;;;;;;3.83;1.77;;;;;;;16.35;81.45;96657.69;5012934;28;20046;-74
2021/07/09 09:58:31;;;;;;;3.95;1.63;;;;;;;16.37;79.99;96674.59;5012674;28;20045;-73
2021/07/09 10:00:58;;;;;;;4.80;1.90;;;;;;;16.49;80.91;96664.72;5012459;28;20053;-73
2021/07/09 10:03:24;;;;;;;4.07;1.88;;;;;;;16.64;80.11;96683.22;5012265;28;20046;-72
2021/07/09 10:05:52;;;;;;;5.28;1.90;;;;;;;16.76;80.68;96675.00;5012069;28;20053;-73
2021/07/09 10:08:24;;;;;;;6.22;2.60;;;;;;;16.86;79.25;96679.16;5010526;28;20046;-73
2021/07/09 10:10:50;;;;;;;5.80;2.20;;;;;;;16.89;78.99;96681.22;5011987;28;20076;-73
2021/07/09 10:13:19;;;;;;;5.82;2.30;;;;;;;16.86;79.52;96691.00;5011892;28;20049;-73
2021/07/09 10:15:47;;;;;;;4.50;2.03;;;;;;;16.84;79.23;96685.03;5011974;28;20049;-73
2021/07/09 10:18:16;;;;;;;5.68;1.23;;;;;;;16.77;78.46;96687.59;5011705;28;20635;-73
2021/07/09 10:20:44;;;;;;;3.60;1.70;;;;;;;16.62;78.29;96680.03;5011924;28;20045;-73
2021/07/09 10:23:11;;;;;;;4.25;2.00;;;;;;;16.56;78.50;96681.44;5009529;28;20056;-73
2021/07/09 10:25:40;;;;;;;4.18;1.75;;;;;;;16.57;79.76;96683.03;5012129;28;20061;-73
2021/07/09 10:28:08;;;;;;;3.90;2.00;;;;;;;16.57;80.06;96683.03;5011558;28;20124;-73
2021/07/09 10:30:37;;;;;;;4.38;1.70;;;;;;;16.49;79.88;96687.50;5011368;28;20045;-72
2021/07/09 10:33:27;;;;;;;5.25;2.15;;;;;;;16.51;79.70;96695.44;5011195;28;20041;-73
2021/07/09 10:35:53;;;;;;;4.90;2.03;;;;;;;16.52;80.27;96692.31;5011256;28;20049;-72
2021/07/09 10:38:22;;;;;;;4.15;2.08;;;;;;;16.51;81.37;96703.69;5011363;28;20597;-73
2021/07/09 10:40:51;;;;;;;3.83;1.92;;;;;;;16.42;81.99;96704.59;5011409;28;20133;-73
2021/07/09 10:43:19;;;;;;;5.18;2.28;;;;;;;16.39;82.25;96699.81;5011580;28;20050;-72
2021/07/09 10:45:47;;;;;;;4.25;2.17;;;;;;;16.40;83.72;96706.91;5011900;28;20042;-73
2021/07/09 10:48:15;;;;;;;3.53;2.33;;;;;;;16.39;84.72;96710.81;5011503;28;20077;-73
2021/07/09 10:50:43;;;;;;;4.82;2.70;;;;;;;16.35;82.08;96715.38;5011283;28;20087;-73
2021/07/09 10:53:23;;;;;;;5.70;3.13;;;;;;;16.26;83.35;96720.22;5011323;28;20405;-73
2021/07/09 10:55:57;;;;;;;7.38;3.85;;;;;;;16.30;84.09;96712.09;5010671;28;20508;-74
2021/07/09 10:58:29;;;;;;;4.15;2.55;;;;;;;16.32;83.26;96715.28;5010355;28;20048;-73
2021/07/09 11:00:58;;;;;;;5.07;2.85;;;;;;;16.35;84.16;96720.88;5011243;28;20042;-73
2021/07/09 11:03:30;;;;;;;2.95;2.10;;;;;;;16.39;83.09;96713.56;5011023;28;20052;-73
2021/07/09 11:06:03;;;;;;;5.00;2.77;;;;;;;16.49;83.94;96719.69;5011432;28;20046;-73
2021/07/09 11:09:02;;;;;;;4.32;2.25;;;;;;;16.56;83.03;96714.44;5011342;28;20046;-73
2021/07/09 11:11:45;;;;;;;5.03;2.50;;;;;;;16.61;81.59;96722.44;5010955;28;20038;-73
2021/07/09 11:14:13;;;;;;;5.90;2.85;;;;;;;16.69;82.05;96724.22;5009595;28;20046;-73
2021/07/09 11:16:42;;;;;;;3.75;2.40;;;;;;;16.72;80.99;96728.28;5010974;28;20044;-74
2021/07/09 11:19:11;;;;;;;4.30;2.78;;;;;;;16.76;79.86;96723.66;5010852;28;20057;-72
2021/07/09 11:21:53;;;;;;;3.90;2.40;;;;;;;16.78;79.47;96722.19;5011281;28;20053;-74
2021/07/09 11:24:21;;;;;;;5.38;2.72;;;;;;;16.87;81.09;96724.78;5011050;28;20061;-74
2021/07/09 11:26:51;;;;;;;6.57;3.38;;;;;;;16.97;81.20;96718.00;5010456;28;20046;-74
2021/07/09 11:29:26;;;;;;;4.43;2.40;;;;;;;17.02;80.39;96715.78;5010076;28;20053;-72
2021/07/09 11:31:55;;;;;;;3.75;2.28;;;;;;;16.98;79.37;96722.34;5011047;28;20050;-74
2021/07/09 11:34:23;;;;;;;5.45;2.97;;;;;;;16.94;80.18;96736.00;5009948;28;20057;-74
2021/07/09 11:36:51;;;;;;;5.70;2.70;;;;;;;16.89;81.17;96728.78;5010374;28;20405;-73